Sulphur Springs, Arkansas
Current Conditions -  °F | °C
As of 6:55 AM on Monday 20 Oct 2014 (Local Time) from KVBT Reporting Station
Broken Clouds Broken Clouds  
Wind Chill: 55°   Ceiling: 8000
Heat Index: 55°   Visibility: 10mi
Dew Point: 52°   Wind: 3mph
Humidity: 88%   Direction: 210°SSW
Pressure: 30.07"   Gusts: NA
Location:  36.48°N, 94.46°W
Report Text: KVBT 201155Z AUTO 21003KT 10SM FEW070 BKN080 13/11 A3007 RMK AO1 60002 70002 10130 20120 54000
Loading
Personal Weather Stations






























Interactive Weather Map
Tropical Storm Tracking
New forecast layout! Learn more

10-Day Weather Forecast

Advertisements
Track Severe Weather on mobile